Time;durP1;ratioP1;P1;durP2;ratioP2;P2;SDS_P1;SDS_P2;PMS_P1;PMS_P2;Temp;Humidity;BMP_temperature;BMP_pressure;BME280_temperature;BME280_humidity;BME280_pressure;Samples;Min_cycle;Max_cycle;Signal;HPM_P1;HPM_P2
2023/08/09 00:00:50;;;;;;;3.03;1.93;;;16.60;74.80;;;16.07;68.22;97739.41;4953151;28;20480;-83
2023/08/09 00:03:17;;;;;;;1.90;1.63;;;16.60;76.00;;;16.10;69.93;97773.53;4929436;29;20457;-84
2023/08/09 00:05:44;;;;;;;2.03;1.83;;;16.50;77.00;;;16.25;70.44;97802.81;4945095;29;20464;-81
2023/08/09 00:08:12;;;;;;;2.43;2.10;;;16.50;79.00;;;15.95;70.36;97779.63;4944666;29;20493;-82
2023/08/09 00:10:39;;;;;;;2.93;2.30;;;16.40;78.90;;;15.99;72.27;97797.09;4946314;29;20579;-82
2023/08/09 00:13:06;;;;;;;3.93;2.00;;;16.20;80.40;;;15.86;72.71;97798.28;4950722;28;20459;-81
2023/08/09 00:15:34;;;;;;;2.40;1.90;;;16.10;81.40;;;15.82;75.10;97799.88;4950738;29;20547;-81
2023/08/09 00:18:03;;;;;;;2.90;2.17;;;16.00;83.60;;;15.68;75.40;97792.09;4951264;28;20448;-83
2023/08/09 00:20:30;;;;;;;2.23;2.00;;;15.90;84.20;;;15.44;76.31;97764.31;4947274;29;20484;-82
2023/08/09 00:22:59;;;;;;;2.23;2.00;;;15.90;85.10;;;15.44;77.53;97772.50;4949305;29;20539;-82
2023/08/09 00:25:27;;;;;;;2.63;2.30;;;15.80;86.90;;;15.46;79.24;97789.38;4944211;29;20517;-82
2023/08/09 00:27:54;;;;;;;2.33;2.07;;;15.80;88.50;;;15.32;79.29;97761.72;4942560;29;20471;-82
2023/08/09 00:30:23;;;;;;;2.70;2.50;;;15.70;88.40;;;15.28;80.09;97771.47;4937878;29;20549;-82
2023/08/09 00:32:51;;;;;;;5.23;2.90;;;15.60;89.90;;;15.43;80.36;97779.00;4949199;29;20492;-81
2023/08/09 00:35:20;;;;;;;4.80;2.73;;;15.60;90.50;;;15.25;83.96;97778.25;4947812;28;20459;-80
2023/08/09 00:37:47;;;;;;;3.80;2.90;;;15.50;92.10;;;15.18;83.82;97772.16;4934132;29;20458;-81
2023/08/09 00:40:15;;;;;;;3.97;2.57;;;15.40;92.10;;;14.61;86.08;97719.63;4954171;28;20466;-80
2023/08/09 00:42:46;;;;;;;3.87;3.30;;;15.30;93.30;;;14.83;87.80;97765.13;4945295;29;21444;-84
2023/08/09 00:45:19;;;;;;;2.70;2.50;;;15.20;94.10;;;14.85;88.28;97787.47;4961049;28;20449;-83
2023/08/09 00:47:47;;;;;;;3.70;3.03;;;15.20;94.80;;;14.71;87.03;97740.75;4948118;29;20549;-82
2023/08/09 00:50:14;;;;;;;3.63;3.27;;;15.20;94.80;;;15.06;87.15;97790.47;4946547;28;20459;-82
2023/08/09 00:52:44;;;;;;;3.43;2.73;;;15.20;94.50;;;14.93;88.75;97784.31;4927341;29;20479;-81
2023/08/09 00:55:12;;;;;;;4.67;2.77;;;15.20;95.80;;;14.88;90.19;97781.53;4964056;28;20458;-82
2023/08/09 00:57:39;;;;;;;3.87;2.63;;;15.10;96.10;;;14.80;91.91;97781.97;4962545;28;20532;-81
2023/08/09 01:00:09;;;;;;;3.10;2.80;;;15.10;98.20;;;14.72;93.05;97783.19;4945274;29;20463;-82
2023/08/09 01:02:36;;;;;;;6.03;5.43;;;15.00;98.40;;;14.43;92.60;97761.50;4953413;29;20458;-84
2023/08/09 01:05:05;;;;;;;4.20;3.20;;;15.00;97.70;;;14.59;92.98;97770.72;4955956;28;21002;-82
2023/08/09 01:07:46;;;;;;;3.03;2.83;;;15.00;97.90;;;14.64;92.35;97778.97;4940387;29;20462;-83
2023/08/09 01:10:19;;;;;;;3.40;3.03;;;14.90;98.30;;;14.64;93.14;97776.25;4937620;29;20522;-83
2023/08/09 01:12:53;;;;;;;3.63;3.20;;;14.90;99.00;;;14.64;93.08;97775.41;4935069;29;20509;-84
2023/08/09 01:15:23;;;;;;;3.27;3.00;;;14.90;99.10;;;14.66;92.85;97774.09;4942990;28;20461;-74
2023/08/09 01:17:53;;;;;;;4.17;3.13;;;14.90;99.30;;;14.41;93.25;97769.09;4959850;28;20487;-75
2023/08/09 01:20:23;;;;;;;4.77;3.27;;;14.80;98.90;;;14.49;94.74;97770.56;4942700;28;20560;-73
2023/08/09 01:22:58;;;;;;;4.43;3.20;;;14.80;99.40;;;14.59;95.59;97760.69;4944419;29;20464;-73
2023/08/09 01:25:26;;;;;;;4.00;3.30;;;14.80;99.90;;;14.49;96.32;97776.00;4945258;29;21225;-75
2023/08/09 01:27:54;;;;;;;5.20;3.70;;;14.80;99.90;;;14.48;95.70;97755.31;4957068;28;21125;-73
2023/08/09 01:30:21;;;;;;;5.23;4.57;;;14.80;99.90;;;14.23;97.31;97719.31;4929245;29;20464;-76
2023/08/09 01:32:49;;;;;;;4.50;4.10;;;14.70;99.90;;;14.27;97.00;97752.25;4948041;29;20477;-74
2023/08/09 01:35:16;;;;;;;5.00;3.97;;;14.70;99.90;;;14.24;98.59;97739.19;4960214;28;20462;-74
2023/08/09 01:37:52;;;;;;;5.00;4.10;;;14.70;99.90;;;14.21;99.00;97739.69;4944808;29;20467;-75
2023/08/09 01:40:22;;;;;;;4.67;3.80;;;14.60;99.90;;;14.13;99.29;97747.16;4938986;29;20451;-74
2023/08/09 01:42:52;;;;;;;3.90;3.60;;;14.60;99.90;;;14.12;99.57;97744.69;4940807;29;20456;-75
2023/08/09 01:45:20;;;;;;;6.00;4.30;;;14.50;99.90;;;14.19;99.63;97741.81;4941896;29;20470;-73
2023/08/09 01:47:48;;;;;;;4.37;4.03;;;14.60;99.90;;;14.20;99.04;97740.75;4946702;29;20483;-74
2023/08/09 01:50:21;;;;;;;6.70;3.73;;;14.50;99.90;;;13.93;99.96;97725.88;4952807;29;20458;-73
2023/08/09 01:52:49;;;;;;;7.00;4.10;;;14.50;99.90;;;14.00;100.00;97737.44;4946502;28;20461;-73
2023/08/09 01:55:19;;;;;;;4.47;4.07;;;14.40;99.90;;;13.88;99.88;97729.34;4955026;28;20463;-74
2023/08/09 01:57:47;;;;;;;5.70;3.50;;;14.40;99.90;;;13.96;100.00;97727.28;4943399;29;20474;-73
2023/08/09 02:00:19;;;;;;;3.80;3.50;;;14.30;99.90;;;13.82;100.00;97708.59;4941261;29;20511;-74
2023/08/09 02:02:47;;;;;;;3.30;3.03;;;14.30;99.90;;;13.57;100.00;97666.34;4939303;28;20481;-73
2023/08/09 02:05:15;;;;;;;4.33;3.93;;;14.30;99.90;;;13.85;100.00;97723.56;4951936;28;20451;-73
2023/08/09 02:07:42;;;;;;;4.23;3.83;;;14.30;99.90;;;14.10;100.00;97719.63;4943102;29;20467;-75
2023/08/09 02:10:11;;;;;;;4.20;3.80;;;14.30;99.90;;;13.79;100.00;97714.50;4966108;28;20459;-75
2023/08/09 02:12:39;;;;;;;4.23;3.67;;;14.20;99.90;;;13.90;100.00;97709.28;4949906;29;20545;-74
2023/08/09 02:15:08;;;;;;;5.00;4.20;;;14.20;99.90;;;13.83;100.00;97715.66;4942331;29;20461;-72
2023/08/09 02:17:37;;;;;;;7.10;4.20;;;14.20;99.90;;;13.83;100.00;97706.72;4948978;28;20944;-74
2023/08/09 02:20:06;;;;;;;5.30;4.23;;;14.30;99.90;;;13.77;100.00;97715.81;4947430;29;20468;-74
2023/08/09 02:22:37;;;;;;;5.20;4.10;;;14.20;99.90;;;13.72;100.00;97708.38;4947113;28;20479;-74
2023/08/09 02:25:06;;;;;;;4.90;4.13;;;14.20;99.90;;;13.77;100.00;97710.38;4944110;29;20539;-73
2023/08/09 02:27:34;;;;;;;4.13;3.60;;;14.20;99.90;;;13.80;100.00;97708.00;4941898;29;20470;-73
2023/08/09 02:30:03;;;;;;;5.00;4.50;;;14.20;99.90;;;13.92;100.00;97704.41;4939467;29;20465;-74
2023/08/09 02:32:30;;;;;;;4.57;3.60;;;14.20;99.90;;;13.68;100.00;97697.22;4940008;29;20451;-73
2023/08/09 02:34:59;;;;;;;6.10;4.03;;;14.20;99.90;;;13.44;100.00;97670.16;4943677;29;20466;-74
2023/08/09 02:37:27;;;;;;;5.63;4.30;;;14.00;99.90;;;13.74;100.00;97696.22;4949024;28;20462;-74
2023/08/09 02:39:55;;;;;;;6.83;3.97;;;14.10;99.90;;;13.79;100.00;97687.34;4942530;28;20541;-72
2023/08/09 02:42:22;;;;;;;4.07;3.67;;;14.10;99.90;;;13.77;100.00;97691.38;4948270;28;21034;-74
2023/08/09 02:44:49;;;;;;;4.93;4.10;;;14.10;99.90;;;13.75;100.00;97686.22;4934246;28;20459;-74
2023/08/09 02:47:17;;;;;;;8.23;3.87;;;14.20;99.90;;;13.73;100.00;97688.34;4962719;28;20466;-74
2023/08/09 02:49:44;;;;;;;4.03;3.50;;;14.10;99.90;;;13.59;100.00;97693.22;4954999;28;21306;-74
2023/08/09 02:52:13;;;;;;;5.33;4.83;;;14.10;99.90;;;13.67;100.00;97692.03;4939996;28;20836;-73
2023/08/09 02:54:40;;;;;;;4.83;4.33;;;14.10;99.90;;;13.67;100.00;97702.88;4934400;28;20451;-74
2023/08/09 02:57:08;;;;;;;4.17;3.77;;;14.10;99.90;;;13.65;100.00;97703.13;4943301;29;20503;-74
2023/08/09 02:59:35;;;;;;;4.27;3.87;;;14.10;99.90;;;13.72;100.00;97702.97;4945714;29;20470;-73
2023/08/09 03:02:03;;;;;;;5.00;4.00;;;14.10;99.90;;;13.82;100.00;97714.00;4940843;29;20510;-74
2023/08/09 03:04:32;;;;;;;4.87;4.07;;;14.20;99.90;;;13.78;100.00;97712.88;4937071;29;21041;-75
2023/08/09 03:06:59;;;;;;;5.83;4.03;;;14.20;99.90;;;13.77;100.00;97703.06;4937145;29;20474;-73
2023/08/09 03:09:28;;;;;;;4.77;4.37;;;14.10;99.90;;;13.78;100.00;97712.03;4935332;29;20449;-74
2023/08/09 03:11:55;;;;;;;9.60;5.40;;;14.10;99.90;;;13.72;100.00;97705.69;4937826;29;20466;-73
2023/08/09 03:14:23;;;;;;;8.00;4.10;;;14.10;99.90;;;13.74;100.00;97706.28;4944907;28;20516;-73
2023/08/09 03:16:50;;;;;;;5.20;4.70;;;14.10;99.90;;;13.56;100.00;97694.53;4943564;28;20466;-72
2023/08/09 03:19:18;;;;;;;6.27;4.90;;;14.10;99.90;;;13.31;100.00;97644.13;4958322;28;20456;-73
2023/08/09 03:21:45;;;;;;;4.93;4.53;;;14.10;99.90;;;13.63;100.00;97709.88;4940918;29;20494;-72
2023/08/09 03:24:13;;;;;;;6.27;5.47;;;14.10;99.90;;;13.69;100.00;97700.75;4949343;28;20865;-73
2023/08/09 03:26:41;;;;;;;4.70;4.30;;;14.10;99.90;;;13.81;100.00;97708.84;4935447;29;20474;-75
2023/08/09 03:29:08;;;;;;;5.17;4.67;;;14.10;99.90;;;13.82;100.00;97710.50;4940810;29;20462;-76
2023/08/09 03:31:36;;;;;;;5.73;5.07;;;14.10;99.90;;;13.78;100.00;97726.44;4950839;28;20976;-74
2023/08/09 03:34:03;;;;;;;5.37;4.43;;;14.10;99.90;;;13.79;100.00;97711.78;4936461;28;20463;-73
2023/08/09 03:36:31;;;;;;;4.93;4.43;;;14.20;99.90;;;13.80;100.00;97710.72;4940087;29;20471;-74
2023/08/09 03:39:00;;;;;;;5.23;4.73;;;14.10;99.90;;;13.67;100.00;97695.56;4942278;28;21016;-74
2023/08/09 03:41:28;;;;;;;5.77;5.17;;;14.20;99.90;;;13.76;100.00;97704.13;4944777;28;20842;-73
2023/08/09 03:43:56;;;;;;;8.07;5.33;;;14.20;99.90;;;13.80;100.00;97710.72;4961075;28;20467;-74
2023/08/09 03:46:23;;;;;;;7.97;6.00;;;14.20;99.90;;;13.80;100.00;97710.72;4933435;29;20448;-74
2023/08/09 03:48:51;;;;;;;5.90;5.30;;;14.20;99.90;;;13.90;100.00;97703.84;4938070;28;20467;-72
2023/08/09 03:51:18;;;;;;;6.00;5.40;;;14.20;99.90;;;13.90;100.00;97699.22;4944122;29;20524;-72
2023/08/09 03:53:45;;;;;;;6.50;5.83;;;14.30;99.90;;;13.87;100.00;97705.13;4936643;29;20481;-74
2023/08/09 03:56:13;;;;;;;5.63;5.13;;;14.30;99.90;;;13.92;100.00;97707.13;4954008;28;20475;-73
2023/08/09 03:58:40;;;;;;;6.17;5.60;;;14.30;99.90;;;13.92;100.00;97707.13;4960950;28;20474;-74
2023/08/09 04:01:08;;;;;;;5.67;5.20;;;14.30;99.90;;;13.95;100.00;97709.34;4941176;29;20549;-71
2023/08/09 04:03:36;;;;;;;6.47;5.37;;;14.30;99.90;;;13.96;100.00;97714.53;4940693;28;20468;-74
2023/08/09 04:06:03;;;;;;;6.00;4.53;;;14.30;99.90;;;13.95;100.00;97734.63;4941500;29;20472;-74
2023/08/09 04:08:34;;;;;;;4.80;4.40;;;14.30;99.90;;;14.03;100.00;97722.53;4941793;28;20455;-72
2023/08/09 04:11:01;;;;;;;6.73;4.90;;;14.30;99.90;;;14.03;100.00;97727.97;4941102;29;20466;-73
2023/08/09 04:13:31;;;;;;;8.20;5.63;;;14.30;99.90;;;13.95;100.00;97733.78;4941545;28;20956;-72
2023/08/09 04:15:58;;;;;;;5.00;4.57;;;14.40;99.90;;;13.83;100.00;97715.66;4935407;29;21227;-73
2023/08/09 04:18:28;;;;;;;6.07;4.63;;;14.30;99.90;;;13.91;100.00;97721.78;4945540;29;20828;-73
2023/08/09 04:20:55;;;;;;;4.97;4.40;;;14.30;99.90;;;13.95;100.00;97720.22;4939231;28;20472;-73
2023/08/09 04:23:23;;;;;;;4.70;4.30;;;14.30;99.90;;;13.81;100.00;97706.94;4953731;28;20478;-74
2023/08/09 04:25:50;;;;;;;4.80;4.40;;;14.30;99.90;;;14.02;100.00;97712.72;4945485;28;20473;-74
2023/08/09 04:28:17;;;;;;;4.43;4.03;;;14.30;99.90;;;14.01;100.00;97717.34;4942451;28;20474;-75
2023/08/09 04:30:46;;;;;;;5.80;4.83;;;14.30;99.90;;;13.89;100.00;97711.16;4940968;29;20960;-74
2023/08/09 04:33:13;;;;;;;4.37;3.97;;;14.30;99.90;;;14.03;100.00;97711.69;4939942;28;20819;-73
2023/08/09 04:35:42;;;;;;;4.43;4.03;;;14.40;99.90;;;13.99;100.00;97718.66;4935427;29;20999;-74
2023/08/09 04:38:09;;;;;;;4.80;4.40;;;14.30;99.90;;;13.88;100.00;97707.63;4938442;29;20457;-81
2023/08/09 04:40:36;;;;;;;6.83;4.40;;;14.30;99.90;;;13.99;100.00;97718.66;4943167;28;20814;-79
2023/08/09 04:43:05;;;;;;;4.30;3.73;;;14.30;99.90;;;14.14;100.00;97731.69;4934430;29;21376;-81
2023/08/09 04:45:32;;;;;;;4.67;3.90;;;14.40;99.90;;;14.17;100.00;97721.13;4945819;29;20470;-81
2023/08/09 04:48:01;;;;;;;4.40;3.13;;;14.40;99.90;;;14.08;100.00;97710.91;4948631;28;20466;-80
2023/08/09 04:50:28;;;;;;;4.97;3.87;;;14.50;99.90;;;14.19;100.00;97725.53;4943697;29;20463;-82
2023/08/09 04:53:00;;;;;;;3.90;3.53;;;14.60;99.90;;;14.16;100.00;97734.97;4943959;28;20477;-80
2023/08/09 04:55:30;;;;;;;3.87;3.57;;;14.50;99.90;;;14.16;100.00;97734.97;4947062;29;20463;-81
2023/08/09 04:57:57;;;;;;;4.33;3.93;;;14.50;99.90;;;14.04;100.00;97732.34;4958689;28;22233;-81
2023/08/09 05:00:24;;;;;;;4.33;3.60;;;14.50;99.90;;;14.11;100.00;97727.56;4945463;28;20455;-81
2023/08/09 05:02:52;;;;;;;4.27;3.87;;;14.50;99.90;;;13.97;100.00;97709.91;4951081;28;20482;-80
2023/08/09 05:05:19;;;;;;;4.93;3.80;;;14.40;99.90;;;13.81;100.00;97679.78;4938483;28;20466;-81
2023/08/09 05:07:47;;;;;;;4.20;3.80;;;14.50;99.90;;;13.88;100.00;97696.75;4958183;29;20463;-78
2023/08/09 05:10:15;;;;;;;4.80;3.70;;;14.40;99.90;;;14.16;100.00;97719.47;4957566;28;20525;-79
2023/08/09 05:12:43;;;;;;;4.13;3.73;;;14.50;99.90;;;13.88;100.00;97669.59;4949040;28;20460;-80
2023/08/09 05:15:12;;;;;;;4.40;3.90;;;14.50;99.90;;;14.15;100.00;97725.97;4949834;28;20458;-82
2023/08/09 05:17:39;;;;;;;4.53;4.13;;;14.50;99.90;;;13.73;100.00;97672.88;4958894;29;20491;-79
2023/08/09 05:20:10;;;;;;;3.57;3.27;;;14.50;99.90;;;14.19;100.00;97728.22;4944272;29;20564;-79
2023/08/09 05:22:37;;;;;;;5.30;4.37;;;14.50;99.90;;;14.30;100.00;97735.47;4951233;29;20496;-79
2023/08/09 05:25:05;;;;;;;3.87;3.50;;;14.60;99.90;;;14.27;100.00;97731.38;4941401;28;20545;-79
2023/08/09 05:27:34;;;;;;;5.67;3.57;;;14.60;99.90;;;14.37;100.00;97725.28;4948110;29;20961;-79
2023/08/09 05:30:02;;;;;;;5.03;3.80;;;14.70;99.90;;;14.24;100.00;97712.00;4949912;29;20973;-80
2023/08/09 05:32:31;;;;;;;4.83;3.80;;;14.70;99.90;;;14.24;100.00;97726.41;4948846;29;20458;-80
2023/08/09 05:34:58;;;;;;;4.57;4.00;;;14.70;99.90;;;14.41;100.00;97737.28;4939121;29;20463;-78
2023/08/09 05:37:26;;;;;;;4.20;3.53;;;14.70;99.90;;;14.41;100.00;97734.56;4955874;28;20462;-80
2023/08/09 05:39:54;;;;;;;3.63;3.27;;;14.80;99.90;;;14.28;100.00;97732.19;4939478;28;20868;-79
2023/08/09 05:42:22;;;;;;;4.10;3.70;;;14.80;99.90;;;14.31;100.00;97723.53;4940030;28;20489;-81
2023/08/09 05:44:50;;;;;;;4.70;4.20;;;14.80;99.90;;;14.47;100.00;97742.78;4939998;29;20469;-79
2023/08/09 05:47:18;;;;;;;3.90;3.43;;;14.80;99.90;;;14.42;100.00;97749.81;4939950;29;20549;-79
2023/08/09 05:49:45;;;;;;;4.60;4.00;;;14.70;99.90;;;14.46;100.00;97744.69;4938694;29;20467;-80
2023/08/09 05:52:16;;;;;;;6.37;3.70;;;14.70;99.90;;;14.58;100.00;97756.31;4952642;29;20461;-81
2023/08/09 05:54:46;;;;;;;6.07;3.83;;;14.80;99.90;;;14.53;100.00;97744.53;4954803;29;20457;-78
2023/08/09 05:57:14;;;;;;;3.20;2.90;;;14.80;99.90;;;14.49;100.00;97743.41;4943168;29;20470;-79
2023/08/09 05:59:41;;;;;;;5.13;4.07;;;14.80;99.90;;;14.63;100.00;97736.50;4960206;28;20973;-78
2023/08/09 06:02:10;;;;;;;5.20;3.30;;;15.00;99.90;;;14.71;100.00;97748.91;4944576;29;20529;-78
2023/08/09 06:04:37;;;;;;;3.87;3.57;;;15.00;99.90;;;14.75;99.42;97751.94;4943873;28;20462;-80
2023/08/09 06:07:05;;;;;;;5.80;3.80;;;15.00;99.90;;;14.67;99.38;97739.56;4942810;29;21085;-79
2023/08/09 06:09:33;;;;;;;3.77;3.47;;;15.00;99.90;;;14.80;98.12;97760.22;4956134;28;20462;-77
2023/08/09 06:12:00;;;;;;;4.50;3.57;;;15.10;99.90;;;14.72;99.25;97756.81;4946159;28;20456;-79
2023/08/09 06:14:27;;;;;;;3.37;3.07;;;15.10;99.90;;;14.75;98.90;97760.09;4945935;28;20551;-78
2023/08/09 06:16:57;;;;;;;4.90;3.67;;;15.00;99.90;;;14.71;100.00;97757.88;4948266;29;20457;-83
2023/08/09 06:19:26;;;;;;;6.50;3.47;;;15.10;99.90;;;14.95;97.95;97749.53;4964385;28;20447;-80
2023/08/09 06:21:54;;;;;;;4.20;3.80;;;15.20;99.90;;;15.05;97.70;97757.03;4963392;29;20466;-78
2023/08/09 06:24:21;;;;;;;3.83;3.37;;;15.20;99.90;;;15.13;96.72;97769.38;4957613;28;20497;-79
2023/08/09 06:26:49;;;;;;;4.10;3.77;;;15.30;99.90;;;15.25;95.82;97761.91;4965258;29;20476;-80
2023/08/09 06:29:16;;;;;;;5.23;4.30;;;15.50;99.90;;;15.20;97.04;97753.66;4944976;29;20460;-82
2023/08/09 06:31:43;;;;;;;4.70;4.30;;;15.50;99.90;;;14.81;99.36;97737.38;4942093;28;20451;-81
2023/08/09 06:34:12;;;;;;;4.23;3.67;;;15.30;99.90;;;15.14;96.71;97762.84;4945493;28;20460;-80
2023/08/09 06:36:40;;;;;;;4.63;4.20;;;15.40;99.90;;;15.06;97.10;97755.09;4946795;28;20463;-80
2023/08/09 06:39:09;;;;;;;4.07;3.43;;;15.50;99.90;;;15.36;94.98;97762.03;4941991;28;20455;-79
2023/08/09 06:41:36;;;;;;;4.60;3.30;;;15.50;99.90;;;15.51;93.87;97764.94;4964293;28;20515;-82
2023/08/09 06:44:04;;;;;;;4.50;3.50;;;15.60;98.90;;;15.33;95.46;97763.38;4952861;28;20479;-82
2023/08/09 06:46:31;;;;;;;4.70;4.30;;;15.70;99.30;;;15.05;96.07;97713.50;4950787;29;20479;-83
2023/08/09 06:48:58;;;;;;;4.57;3.50;;;15.60;99.90;;;15.88;91.96;97758.00;4959842;28;20459;-83
2023/08/09 06:51:26;;;;;;;4.93;3.43;;;15.80;98.90;;;15.63;91.80;97761.25;4964064;28;20493;-81
2023/08/09 06:53:55;;;;;;;3.60;3.30;;;15.90;96.50;;;15.43;93.09;97749.06;4959659;29;20531;-82
2023/08/09 06:56:23;;;;;;;4.37;3.77;;;15.80;97.10;;;15.54;93.10;97764.47;4957691;28;20472;-83
2023/08/09 06:58:50;;;;;;;4.83;3.40;;;15.80;97.00;;;15.64;91.98;97754.75;4959569;28;20486;-82
2023/08/09 07:01:17;;;;;;;6.80;4.00;;;15.90;96.40;;;16.04;90.03;97761.75;4963266;29;20482;-82
2023/08/09 07:03:46;;;;;;;4.53;3.20;;;16.10;96.40;;;15.93;88.37;97697.34;4953122;29;20485;-84
2023/08/09 07:06:13;;;;;;;3.97;2.90;;;16.30;95.20;;;16.28;85.57;97745.03;4951884;28;20457;-84
2023/08/09 07:08:41;;;;;;;4.20;3.03;;;16.60;93.40;;;16.43;85.64;97760.72;4944557;28;20541;-83
2023/08/09 07:11:13;;;;;;;3.20;2.90;;;16.60;93.50;;;16.34;84.72;97716.75;4953073;29;20460;-89
2023/08/09 07:13:42;;;;;;;3.30;3.00;;;16.80;93.20;;;16.43;85.04;97764.25;4939273;29;20488;-88
2023/08/09 07:16:11;;;;;;;3.20;2.90;;;16.80;92.90;;;16.39;86.01;97774.03;4934781;29;20464;-90
2023/08/09 07:18:39;;;;;;;3.63;3.10;;;16.70;93.00;;;16.51;85.37;97748.53;4961471;28;20466;-87
2023/08/09 07:21:07;;;;;;;3.70;2.60;;;16.80;93.30;;;16.69;84.94;97778.09;4934954;29;20472;-86
2023/08/09 07:23:34;;;;;;;4.40;2.70;;;16.80;93.30;;;16.47;84.91;97766.50;4940813;29;21064;-80
2023/08/09 07:26:03;;;;;;;4.60;3.10;;;16.80;92.90;;;16.55;84.97;97775.00;4940661;29;20541;-81
2023/08/09 07:28:31;;;;;;;3.00;2.70;;;16.80;92.90;;;16.56;85.32;97778.53;4931427;29;20530;-82
2023/08/09 07:31:00;;;;;;;4.37;3.70;;;16.70;93.20;;;16.30;86.30;97759.22;4937096;29;20466;-84
2023/08/09 07:33:31;;;;;;;3.60;3.30;;;16.70;93.40;;;16.04;86.68;97745.41;4937488;29;20473;-83
2023/08/09 07:35:58;;;;;;;3.83;2.60;;;16.50;93.50;;;16.52;85.83;97788.34;4941544;28;20493;-82
2023/08/09 07:38:25;;;;;;;3.30;3.00;;;16.60;93.80;;;16.23;87.78;97791.34;4940117;29;20543;-81
2023/08/09 07:40:54;;;;;;;2.60;2.40;;;16.50;93.90;;;16.46;85.50;97795.66;4949116;28;20479;-82
2023/08/09 07:43:22;;;;;;;3.37;3.07;;;16.60;93.50;;;16.85;83.64;97786.41;4946124;28;20490;-81
2023/08/09 07:45:51;;;;;;;3.20;2.73;;;16.80;93.30;;;17.06;83.92;97792.00;4942128;29;20465;-80
2023/08/09 07:48:18;;;;;;;3.00;2.70;;;17.10;93.00;;;17.60;79.84;97771.00;4924157;29;20957;-83
2023/08/09 07:50:45;;;;;;;3.17;2.93;;;17.60;92.00;;;17.74;79.51;97785.78;4938171;29;20464;-82
2023/08/09 07:53:13;;;;;;;4.13;2.80;;;17.90;91.50;;;18.65;75.34;97782.69;4939513;28;20477;-87
2023/08/09 07:55:40;;;;;;;2.87;2.60;;;18.40;90.70;;;18.59;75.33;97794.75;4942192;29;20461;-82
2023/08/09 07:58:07;;;;;;;2.27;2.13;;;18.50;90.30;;;18.66;74.08;97795.28;4953396;28;20476;-82
2023/08/09 08:00:35;;;;;;;3.00;2.70;;;18.60;90.00;;;18.64;74.90;97807.56;4958670;28;20510;-82
2023/08/09 08:03:06;;;;;;;2.90;2.60;;;18.50;90.00;;;18.84;73.41;97801.28;4953045;29;20474;-81
2023/08/09 08:05:34;;;;;;;3.20;2.57;;;18.70;89.90;;;18.48;73.38;97809.50;4950782;28;20487;-82
2023/08/09 08:08:02;;;;;;;2.70;2.50;;;18.60;88.90;;;18.17;74.38;97738.38;4947175;28;20561;-82
2023/08/09 08:10:29;;;;;;;4.17;2.80;;;18.60;89.70;;;18.48;72.99;97790.34;4947561;29;20480;-80
2023/08/09 08:12:57;;;;;;;3.57;3.27;;;18.60;89.10;;;18.50;73.42;97796.38;4940378;28;20471;-82
2023/08/09 08:15:25;;;;;;;3.17;2.60;;;18.60;88.90;;;17.80;74.32;97738.25;4940872;29;20580;-81
2023/08/09 08:17:52;;;;;;;3.80;2.80;;;18.60;88.90;;;18.48;75.18;97825.91;4947947;29;20476;-82
2023/08/09 08:20:21;;;;;;;2.87;2.60;;;18.60;89.60;;;18.30;75.17;97824.50;4946698;28;20862;-83
2023/08/09 08:22:51;;;;;;;3.77;3.00;;;18.50;89.20;;;18.28;76.55;97805.66;4939604;29;20529;-81
2023/08/09 08:25:20;;;;;;;2.93;2.63;;;18.50;90.00;;;18.32;75.33;97828.63;4942015;28;20553;-82
2023/08/09 08:27:48;;;;;;;3.07;2.77;;;18.50;89.30;;;17.39;77.52;97736.22;4941458;28;20571;-82
2023/08/09 08:30:20;;;;;;;3.90;3.07;;;18.30;89.90;;;18.06;77.68;97835.94;4963275;28;20472;-80
2023/08/09 08:32:48;;;;;;;3.87;2.87;;;18.30;90.10;;;18.07;75.70;97804.78;4962343;28;20513;-81
2023/08/09 08:35:20;;;;;;;4.27;2.33;;;18.40;89.70;;;18.37;75.05;97817.69;4945068;28;21017;-79
2023/08/09 08:37:50;;;;;;;3.50;2.40;;;18.50;89.60;;;18.50;75.22;97840.97;4947187;29;20481;-80
2023/08/09 08:40:19;;;;;;;2.70;2.50;;;18.60;89.50;;;17.69;75.03;97733.88;4941825;29;20459;-80
2023/08/09 08:42:47;;;;;;;3.50;2.97;;;18.60;88.90;;;18.14;75.97;97831.88;4940125;29;20459;-82
2023/08/09 08:45:15;;;;;;;2.90;2.47;;;18.30;89.40;;;18.12;76.50;97834.84;4943740;28;20538;-82
2023/08/09 08:47:45;;;;;;;2.40;2.20;;;18.20;89.90;;;17.79;77.29;97813.13;4951719;29;20478;-80
2023/08/09 08:50:15;;;;;;;3.40;3.10;;;18.00;90.00;;;17.93;77.07;97820.81;4940181;28;20462;-81
2023/08/09 08:52:45;;;;;;;3.20;2.83;;;18.00;90.20;;;17.43;75.93;97711.94;4944503;29;20491;-83
2023/08/09 08:55:15;;;;;;;5.30;3.30;;;18.10;90.10;;;18.18;76.08;97811.91;4941767;28;20493;-82
2023/08/09 08:57:45;;;;;;;4.07;2.67;;;18.20;90.10;;;18.00;76.05;97829.59;4944251;29;20495;-81
2023/08/09 09:00:17;;;;;;;3.03;2.73;;;18.10;89.70;;;17.39;76.60;97769.00;4941339;29;20577;-81
2023/08/09 09:02:46;;;;;;;3.00;2.40;;;17.90;90.00;;;17.99;77.44;97834.25;4946368;29;20837;-81
2023/08/09 09:05:14;;;;;;;2.37;2.10;;;18.00;90.40;;;18.22;77.55;97845.00;4933028;29;20469;-82
2023/08/09 09:07:45;;;;;;;2.27;2.07;;;18.10;90.50;;;18.17;76.11;97837.59;4942474;28;20526;-81
2023/08/09 09:10:16;;;;;;;5.27;2.80;;;18.20;90.20;;;18.16;75.50;97851.56;4939768;29;21058;-83
2023/08/09 09:12:44;;;;;;;2.40;2.20;;;18.10;89.70;;;18.06;75.86;97858.63;4942218;29;20481;-81
2023/08/09 09:15:14;;;;;;;2.50;2.30;;;18.10;89.80;;;18.20;76.31;97858.97;4942555;28;20474;-81
2023/08/09 09:17:44;;;;;;;2.40;2.20;;;18.10;90.10;;;18.08;76.13;97858.38;4958997;28;20474;-80
2023/08/09 09:20:21;;;;;;;2.27;2.07;;;18.10;90.10;;;17.79;76.57;97810.41;4942380;28;20472;-83
2023/08/09 09:22:52;;;;;;;2.77;2.57;;;18.00;90.00;;;17.98;76.08;97851.72;4947545;29;20524;-81
2023/08/09 09:25:22;;;;;;;2.33;2.10;;;17.90;89.70;;;17.82;77.96;97864.53;4961926;29;20465;-82
2023/08/09 09:27:54;;;;;;;2.87;2.67;;;17.80;90.20;;;17.57;79.76;97862.47;4964063;28;20463;-82
2023/08/09 09:30:24;;;;;;;2.57;2.37;;;17.60;90.70;;;17.54;80.90;97869.31;4969038;28;20470;-81
2023/08/09 09:32:57;;;;;;;4.77;2.67;;;17.50;91.40;;;17.40;83.39;97862.66;4949354;29;20595;-80
2023/08/09 09:35:29;;;;;;;3.00;2.60;;;17.40;92.60;;;17.33;83.19;97845.69;4942238;29;20475;-80
2023/08/09 09:37:59;;;;;;;3.67;3.20;;;17.40;92.90;;;17.37;83.93;97858.56;4951424;29;20490;-79
2023/08/09 09:40:31;;;;;;;4.00;3.10;;;17.40;93.10;;;16.94;85.75;97866.69;4952304;28;20456;-79
2023/08/09 09:43:01;;;;;;;3.60;3.27;;;17.20;93.30;;;16.71;86.51;97835.94;4949061;29;20574;-78
2023/08/09 09:45:31;;;;;;;4.40;2.97;;;17.10;93.60;;;16.97;86.43;97863.44;4957974;28;20464;-80
2023/08/09 09:48:01;;;;;;;5.10;3.53;;;17.10;94.20;;;17.30;86.50;97862.59;4956134;29;20478;-79
2023/08/09 09:50:33;;;;;;;3.50;3.20;;;17.30;94.60;;;17.63;83.66;97841.47;4953678;29;20475;-85
2023/08/09 09:53:04;;;;;;;4.00;3.33;;;17.70;93.40;;;17.72;80.32;97763.41;4951565;29;20769;-83
2023/08/09 09:55:37;;;;;;;3.90;3.37;;;18.30;92.20;;;19.06;77.76;97863.16;4946380;29;20530;-86
2023/08/09 09:58:15;;;;;;;3.13;2.80;;;18.90;91.60;;;19.17;74.18;97823.72;4945151;29;20466;-84
2023/08/09 10:01:01;;;;;;;2.90;2.70;;;19.30;90.30;;;19.21;73.39;97837.66;4937810;29;20517;-91
2023/08/09 10:03:32;;;;;;;2.67;2.47;;;19.40;89.60;;;19.42;72.75;97852.16;4952372;29;20470;-79
2023/08/09 10:06:00;;;;;;;2.77;2.47;;;19.40;89.40;;;18.93;73.04;97791.44;4960293;28;20459;-82
2023/08/09 10:08:30;;;;;;;2.67;2.37;;;19.40;89.10;;;18.90;71.96;97778.31;4969718;28;20519;-79
2023/08/09 10:11:03;;;;;;;2.73;2.50;;;19.40;88.20;;;18.92;73.92;97825.38;4948618;28;20458;-82
2023/08/09 10:13:32;;;;;;;2.40;2.20;;;19.30;88.90;;;18.91;74.49;97774.47;4948100;29;20465;-77
2023/08/09 10:16:05;;;;;;;2.80;2.43;;;19.30;89.70;;;19.36;74.11;97840.38;4943059;29;20471;-81
2023/08/09 10:18:39;;;;;;;2.63;2.43;;;19.50;89.80;;;19.48;75.20;97856.50;4947124;29;20473;-82
2023/08/09 10:21:08;;;;;;;3.90;2.67;;;19.50;90.10;;;19.38;73.19;97851.06;4954733;29;20468;-84
2023/08/09 10:23:38;;;;;;;3.50;2.87;;;19.50;89.00;;;19.27;74.59;97854.91;4953212;28;20483;-82